sensor_id;sensor_type;location;lat;lon;timestamp;P1;durP1;ratioP1;P2;durP2;ratioP2
19889;SDS011;10107;51.198;6.824;2023-08-20T00:00:42;9.55;;;7.50;;
19889;SDS011;10107;51.198;6.824;2023-08-20T00:04:45;9.35;;;7.50;;
19889;SDS011;10107;51.198;6.824;2023-08-20T00:12:49;10.45;;;7.55;;
19889;SDS011;10107;51.198;6.824;2023-08-20T00:16:51;9.50;;;7.55;;
19889;SDS011;10107;51.198;6.824;2023-08-20T00:20:54;9.93;;;8.13;;
19889;SDS011;10107;51.198;6.824;2023-08-20T00:24:57;10.27;;;8.27;;
19889;SDS011;10107;51.198;6.824;2023-08-20T00:28:58;10.75;;;7.97;;
19889;SDS011;10107;51.198;6.824;2023-08-20T00:33:00;13.55;;;8.60;;
19889;SDS011;10107;51.198;6.824;2023-08-20T00:37:04;11.90;;;8.38;;
19889;SDS011;10107;51.198;6.824;2023-08-20T00:45:07;11.23;;;8.23;;
19889;SDS011;10107;51.198;6.824;2023-08-20T00:49:10;11.55;;;8.43;;
19889;SDS011;10107;51.198;6.824;2023-08-20T00:53:13;11.30;;;7.55;;
19889;SDS011;10107;51.198;6.824;2023-08-20T00:57:16;10.13;;;7.82;;
19889;SDS011;10107;51.198;6.824;2023-08-20T01:05:20;11.63;;;8.20;;
19889;SDS011;10107;51.198;6.824;2023-08-20T01:09:26;8.05;;;7.25;;
19889;SDS011;10107;51.198;6.824;2023-08-20T01:13:33;8.85;;;7.43;;
19889;SDS011;10107;51.198;6.824;2023-08-20T01:17:35;12.45;;;8.80;;
19889;SDS011;10107;51.198;6.824;2023-08-20T01:21:37;10.85;;;8.68;;
19889;SDS011;10107;51.198;6.824;2023-08-20T01:25:45;9.80;;;8.25;;
19889;SDS011;10107;51.198;6.824;2023-08-20T01:30:10;11.02;;;8.13;;
19889;SDS011;10107;51.198;6.824;2023-08-20T01:34:13;10.00;;;8.52;;
19889;SDS011;10107;51.198;6.824;2023-08-20T01:38:15;12.02;;;8.77;;
19889;SDS011;10107;51.198;6.824;2023-08-20T01:42:16;10.32;;;8.18;;
19889;SDS011;10107;51.198;6.824;2023-08-20T01:46:21;10.23;;;8.38;;
19889;SDS011;10107;51.198;6.824;2023-08-20T01:50:25;10.50;;;8.20;;
19889;SDS011;10107;51.198;6.824;2023-08-20T01:54:26;12.13;;;9.25;;
19889;SDS011;10107;51.198;6.824;2023-08-20T02:02:33;11.10;;;8.55;;
19889;SDS011;10107;51.198;6.824;2023-08-20T02:06:35;10.43;;;8.25;;
19889;SDS011;10107;51.198;6.824;2023-08-20T02:10:37;10.88;;;8.57;;
19889;SDS011;10107;51.198;6.824;2023-08-20T02:14:39;9.38;;;8.38;;
19889;SDS011;10107;51.198;6.824;2023-08-20T02:18:42;11.55;;;8.60;;
19889;SDS011;10107;51.198;6.824;2023-08-20T02:22:43;11.57;;;8.57;;
19889;SDS011;10107;51.198;6.824;2023-08-20T02:26:45;10.77;;;8.25;;
19889;SDS011;10107;51.198;6.824;2023-08-20T02:30:47;10.38;;;8.32;;
19889;SDS011;10107;51.198;6.824;2023-08-20T02:34:50;11.48;;;8.70;;
19889;SDS011;10107;51.198;6.824;2023-08-20T02:38:52;10.02;;;8.23;;
19889;SDS011;10107;51.198;6.824;2023-08-20T02:42:54;8.77;;;7.85;;
19889;SDS011;10107;51.198;6.824;2023-08-20T02:46:55;11.35;;;8.20;;
19889;SDS011;10107;51.198;6.824;2023-08-20T02:50:59;8.70;;;7.80;;
19889;SDS011;10107;51.198;6.824;2023-08-20T02:55:01;11.47;;;9.00;;
19889;SDS011;10107;51.198;6.824;2023-08-20T02:59:03;10.45;;;8.23;;
19889;SDS011;10107;51.198;6.824;2023-08-20T03:03:05;12.23;;;8.60;;
19889;SDS011;10107;51.198;6.824;2023-08-20T03:07:10;10.77;;;9.02;;
19889;SDS011;10107;51.198;6.824;2023-08-20T03:11:12;11.20;;;9.07;;
19889;SDS011;10107;51.198;6.824;2023-08-20T03:15:13;11.45;;;9.52;;
19889;SDS011;10107;51.198;6.824;2023-08-20T03:19:15;9.95;;;8.88;;
19889;SDS011;10107;51.198;6.824;2023-08-20T03:23:18;12.27;;;9.13;;
19889;SDS011;10107;51.198;6.824;2023-08-20T03:27:20;12.60;;;9.32;;
19889;SDS011;10107;51.198;6.824;2023-08-20T03:31:22;11.95;;;9.57;;
19889;SDS011;10107;51.198;6.824;2023-08-20T03:35:23;11.40;;;8.85;;
19889;SDS011;10107;51.198;6.824;2023-08-20T03:39:26;11.45;;;8.95;;
19889;SDS011;10107;51.198;6.824;2023-08-20T03:43:28;10.90;;;8.40;;
19889;SDS011;10107;51.198;6.824;2023-08-20T03:47:30;10.93;;;8.45;;
19889;SDS011;10107;51.198;6.824;2023-08-20T03:51:31;10.77;;;8.32;;
19889;SDS011;10107;51.198;6.824;2023-08-20T03:55:34;8.80;;;7.45;;
19889;SDS011;10107;51.198;6.824;2023-08-20T03:59:36;8.70;;;7.55;;
19889;SDS011;10107;51.198;6.824;2023-08-20T04:03:38;10.73;;;8.40;;
19889;SDS011;10107;51.198;6.824;2023-08-20T04:07:39;11.05;;;7.90;;
19889;SDS011;10107;51.198;6.824;2023-08-20T04:11:42;8.32;;;7.13;;
19889;SDS011;10107;51.198;6.824;2023-08-20T04:15:44;9.52;;;7.68;;
19889;SDS011;10107;51.198;6.824;2023-08-20T04:19:45;9.95;;;7.32;;
19889;SDS011;10107;51.198;6.824;2023-08-20T04:23:47;9.52;;;7.82;;
19889;SDS011;10107;51.198;6.824;2023-08-20T04:27:50;9.77;;;7.57;;
19889;SDS011;10107;51.198;6.824;2023-08-20T04:31:51;10.97;;;7.67;;
19889;SDS011;10107;51.198;6.824;2023-08-20T04:35:53;8.43;;;7.03;;
19889;SDS011;10107;51.198;6.824;2023-08-20T04:39:55;9.63;;;7.43;;
19889;SDS011;10107;51.198;6.824;2023-08-20T04:43:58;10.45;;;7.55;;
19889;SDS011;10107;51.198;6.824;2023-08-20T04:52:03;8.50;;;6.65;;
19889;SDS011;10107;51.198;6.824;2023-08-20T04:56:05;10.30;;;7.38;;
19889;SDS011;10107;51.198;6.824;2023-08-20T05:00:09;8.48;;;7.45;;
19889;SDS011;10107;51.198;6.824;2023-08-20T05:04:18;8.80;;;7.20;;
19889;SDS011;10107;51.198;6.824;2023-08-20T05:08:20;9.32;;;7.22;;
19889;SDS011;10107;51.198;6.824;2023-08-20T05:12:22;10.95;;;7.97;;
19889;SDS011;10107;51.198;6.824;2023-08-20T05:16:25;9.90;;;7.13;;
19889;SDS011;10107;51.198;6.824;2023-08-20T05:20:27;8.07;;;6.72;;
19889;SDS011;10107;51.198;6.824;2023-08-20T05:24:28;10.68;;;7.32;;
19889;SDS011;10107;51.198;6.824;2023-08-20T05:28:30;8.18;;;6.53;;
19889;SDS011;10107;51.198;6.824;2023-08-20T05:32:33;7.70;;;6.57;;
19889;SDS011;10107;51.198;6.824;2023-08-20T05:36:35;8.18;;;6.45;;
19889;SDS011;10107;51.198;6.824;2023-08-20T05:40:37;9.20;;;6.45;;
19889;SDS011;10107;51.198;6.824;2023-08-20T05:44:39;7.35;;;6.45;;
19889;SDS011;10107;51.198;6.824;2023-08-20T05:48:46;9.50;;;6.68;;
19889;SDS011;10107;51.198;6.824;2023-08-20T05:52:48;11.02;;;6.90;;
19889;SDS011;10107;51.198;6.824;2023-08-20T05:56:50;7.97;;;6.75;;
19889;SDS011;10107;51.198;6.824;2023-08-20T06:00:51;8.60;;;6.20;;
19889;SDS011;10107;51.198;6.824;2023-08-20T06:04:54;7.07;;;6.20;;
19889;SDS011;10107;51.198;6.824;2023-08-20T06:08:56;7.28;;;6.13;;
19889;SDS011;10107;51.198;6.824;2023-08-20T06:12:58;6.45;;;5.68;;
19889;SDS011;10107;51.198;6.824;2023-08-20T06:16:59;6.63;;;5.28;;
19889;SDS011;10107;51.198;6.824;2023-08-20T06:21:02;7.47;;;5.97;;
19889;SDS011;10107;51.198;6.824;2023-08-20T06:25:04;5.63;;;5.05;;
19889;SDS011;10107;51.198;6.824;2023-08-20T06:29:07;4.63;;;4.07;;
19889;SDS011;10107;51.198;6.824;2023-08-20T06:33:08;6.43;;;5.60;;
19889;SDS011;10107;51.198;6.824;2023-08-20T06:37:11;6.30;;;5.10;;
19889;SDS011;10107;51.198;6.824;2023-08-20T06:41:13;5.43;;;4.60;;
19889;SDS011;10107;51.198;6.824;2023-08-20T06:45:14;6.28;;;4.82;;
19889;SDS011;10107;51.198;6.824;2023-08-20T06:49:16;7.80;;;5.88;;
19889;SDS011;10107;51.198;6.824;2023-08-20T06:53:19;6.32;;;4.90;;
19889;SDS011;10107;51.198;6.824;2023-08-20T06:57:20;7.47;;;5.60;;
19889;SDS011;10107;51.198;6.824;2023-08-20T07:01:22;8.15;;;5.78;;
19889;SDS011;10107;51.198;6.824;2023-08-20T07:05:23;7.30;;;6.15;;
19889;SDS011;10107;51.198;6.824;2023-08-20T07:09:27;6.70;;;4.90;;
19889;SDS011;10107;51.198;6.824;2023-08-20T07:13:28;7.63;;;5.57;;
19889;SDS011;10107;51.198;6.824;2023-08-20T07:17:30;6.60;;;5.63;;
19889;SDS011;10107;51.198;6.824;2023-08-20T07:21:31;6.47;;;5.70;;
19889;SDS011;10107;51.198;6.824;2023-08-20T07:25:35;8.70;;;7.03;;
19889;SDS011;10107;51.198;6.824;2023-08-20T07:29:37;10.68;;;6.90;;
19889;SDS011;10107;51.198;6.824;2023-08-20T07:33:39;7.15;;;5.68;;
19889;SDS011;10107;51.198;6.824;2023-08-20T07:37:40;8.02;;;5.63;;
19889;SDS011;10107;51.198;6.824;2023-08-20T07:41:43;7.95;;;6.28;;
19889;SDS011;10107;51.198;6.824;2023-08-20T07:45:45;5.32;;;4.82;;
19889;SDS011;10107;51.198;6.824;2023-08-20T07:49:46;6.37;;;5.20;;
19889;SDS011;10107;51.198;6.824;2023-08-20T07:53:48;5.87;;;5.27;;
19889;SDS011;10107;51.198;6.824;2023-08-20T07:57:51;10.30;;;7.77;;
19889;SDS011;10107;51.198;6.824;2023-08-20T08:01:53;6.45;;;5.60;;
19889;SDS011;10107;51.198;6.824;2023-08-20T08:05:54;9.00;;;6.30;;
19889;SDS011;10107;51.198;6.824;2023-08-20T08:09:56;6.28;;;5.03;;
19889;SDS011;10107;51.198;6.824;2023-08-20T08:13:59;7.90;;;6.40;;
19889;SDS011;10107;51.198;6.824;2023-08-20T08:18:01;5.50;;;4.75;;
19889;SDS011;10107;51.198;6.824;2023-08-20T08:22:03;7.55;;;4.70;;
19889;SDS011;10107;51.198;6.824;2023-08-20T08:26:05;6.32;;;5.40;;
19889;SDS011;10107;51.198;6.824;2023-08-20T08:30:08;6.97;;;5.43;;
19889;SDS011;10107;51.198;6.824;2023-08-20T08:34:10;5.95;;;4.57;;
19889;SDS011;10107;51.198;6.824;2023-08-20T08:38:11;5.07;;;4.50;;
19889;SDS011;10107;51.198;6.824;2023-08-20T08:42:13;6.97;;;4.90;;
19889;SDS011;10107;51.198;6.824;2023-08-20T08:46:17;6.57;;;5.10;;
19889;SDS011;10107;51.198;6.824;2023-08-20T08:50:20;6.07;;;4.32;;
19889;SDS011;10107;51.198;6.824;2023-08-20T08:54:21;5.88;;;4.63;;
19889;SDS011;10107;51.198;6.824;2023-08-20T08:58:23;7.07;;;4.65;;
19889;SDS011;10107;51.198;6.824;2023-08-20T09:02:26;4.60;;;4.10;;
19889;SDS011;10107;51.198;6.824;2023-08-20T09:06:29;5.72;;;4.20;;
19889;SDS011;10107;51.198;6.824;2023-08-20T09:10:45;4.57;;;4.15;;
19889;SDS011;10107;51.198;6.824;2023-08-20T09:14:47;5.10;;;4.40;;
19889;SDS011;10107;51.198;6.824;2023-08-20T09:18:51;3.83;;;3.42;;
19889;SDS011;10107;51.198;6.824;2023-08-20T09:22:53;4.10;;;3.70;;
19889;SDS011;10107;51.198;6.824;2023-08-20T09:26:56;3.97;;;3.47;;
19889;SDS011;10107;51.198;6.824;2023-08-20T09:30:59;4.57;;;4.18;;
19889;SDS011;10107;51.198;6.824;2023-08-20T09:35:04;4.97;;;4.35;;
19889;SDS011;10107;51.198;6.824;2023-08-20T09:39:06;5.20;;;3.92;;
19889;SDS011;10107;51.198;6.824;2023-08-20T09:43:08;6.47;;;4.40;;
19889;SDS011;10107;51.198;6.824;2023-08-20T09:47:15;5.28;;;4.18;;
19889;SDS011;10107;51.198;6.824;2023-08-20T09:51:19;4.40;;;4.00;;
19889;SDS011;10107;51.198;6.824;2023-08-20T09:55:28;5.47;;;4.18;;
19889;SDS011;10107;51.198;6.824;2023-08-20T09:59:33;4.80;;;3.90;;
19889;SDS011;10107;51.198;6.824;2023-08-20T10:03:36;4.97;;;4.00;;
19889;SDS011;10107;51.198;6.824;2023-08-20T10:07:40;4.07;;;3.58;;
19889;SDS011;10107;51.198;6.824;2023-08-20T10:11:44;4.38;;;3.65;;
19889;SDS011;10107;51.198;6.824;2023-08-20T10:15:46;4.35;;;3.28;;
19889;SDS011;10107;51.198;6.824;2023-08-20T10:19:48;4.83;;;3.63;;
19889;SDS011;10107;51.198;6.824;2023-08-20T10:23:51;4.43;;;3.50;;
19889;SDS011;10107;51.198;6.824;2023-08-20T10:27:53;4.93;;;3.85;;
19889;SDS011;10107;51.198;6.824;2023-08-20T10:31:55;5.25;;;3.72;;
19889;SDS011;10107;51.198;6.824;2023-08-20T10:35:57;4.95;;;3.78;;
19889;SDS011;10107;51.198;6.824;2023-08-20T10:40:00;5.77;;;4.30;;
19889;SDS011;10107;51.198;6.824;2023-08-20T10:44:01;4.97;;;3.53;;
19889;SDS011;10107;51.198;6.824;2023-08-20T10:48:03;4.40;;;3.97;;
19889;SDS011;10107;51.198;6.824;2023-08-20T10:52:06;4.28;;;3.88;;
19889;SDS011;10107;51.198;6.824;2023-08-20T10:56:10;5.00;;;4.30;;
19889;SDS011;10107;51.198;6.824;2023-08-20T11:00:15;6.40;;;4.88;;
19889;SDS011;10107;51.198;6.824;2023-08-20T11:04:17;4.55;;;4.15;;
19889;SDS011;10107;51.198;6.824;2023-08-20T11:08:20;5.70;;;4.28;;
19889;SDS011;10107;51.198;6.824;2023-08-20T11:12:23;4.80;;;4.20;;
19889;SDS011;10107;51.198;6.824;2023-08-20T11:16:25;6.55;;;4.30;;
19889;SDS011;10107;51.198;6.824;2023-08-20T11:20:26;5.72;;;3.80;;
19889;SDS011;10107;51.198;6.824;2023-08-20T11:24:28;4.43;;;3.78;;
19889;SDS011;10107;51.198;6.824;2023-08-20T11:32:33;4.40;;;4.00;;
19889;SDS011;10107;51.198;6.824;2023-08-20T11:36:35;4.63;;;4.17;;
19889;SDS011;10107;51.198;6.824;2023-08-20T11:40:36;4.70;;;4.30;;
19889;SDS011;10107;51.198;6.824;2023-08-20T11:44:43;4.45;;;4.05;;
19889;SDS011;10107;51.198;6.824;2023-08-20T11:53:07;5.47;;;4.40;;
19889;SDS011;10107;51.198;6.824;2023-08-20T11:57:09;5.60;;;4.55;;
19889;SDS011;10107;51.198;6.824;2023-08-20T12:01:14;5.37;;;4.90;;
19889;SDS011;10107;51.198;6.824;2023-08-20T12:05:18;5.88;;;5.22;;
19889;SDS011;10107;51.198;6.824;2023-08-20T12:09:20;6.68;;;5.75;;
19889;SDS011;10107;51.198;6.824;2023-08-20T12:17:27;6.03;;;5.50;;
19889;SDS011;10107;51.198;6.824;2023-08-20T12:21:28;5.55;;;5.05;;
19889;SDS011;10107;51.198;6.824;2023-08-20T12:25:30;5.65;;;5.25;;
19889;SDS011;10107;51.198;6.824;2023-08-20T12:29:33;6.40;;;5.80;;
19889;SDS011;10107;51.198;6.824;2023-08-20T12:33:36;5.90;;;5.40;;
19889;SDS011;10107;51.198;6.824;2023-08-20T12:37:38;5.55;;;5.05;;
19889;SDS011;10107;51.198;6.824;2023-08-20T12:41:40;7.57;;;5.55;;
19889;SDS011;10107;51.198;6.824;2023-08-20T12:45:42;6.15;;;5.65;;
19889;SDS011;10107;51.198;6.824;2023-08-20T12:49:45;7.07;;;5.68;;
19889;SDS011;10107;51.198;6.824;2023-08-20T12:53:46;5.65;;;5.15;;
19889;SDS011;10107;51.198;6.824;2023-08-20T13:01:53;6.60;;;5.53;;
19889;SDS011;10107;51.198;6.824;2023-08-20T13:05:57;6.13;;;5.63;;
19889;SDS011;10107;51.198;6.824;2023-08-20T13:09:59;6.97;;;5.53;;
19889;SDS011;10107;51.198;6.824;2023-08-20T13:14:01;5.75;;;5.25;;
19889;SDS011;10107;51.198;6.824;2023-08-20T13:18:03;5.95;;;5.35;;
19889;SDS011;10107;51.198;6.824;2023-08-20T13:22:09;6.88;;;5.75;;
19889;SDS011;10107;51.198;6.824;2023-08-20T13:26:10;6.05;;;5.55;;
19889;SDS011;10107;51.198;6.824;2023-08-20T13:30:12;6.13;;;5.53;;
19889;SDS011;10107;51.198;6.824;2023-08-20T13:34:14;5.68;;;5.15;;
19889;SDS011;10107;51.198;6.824;2023-08-20T13:38:17;6.43;;;5.83;;
19889;SDS011;10107;51.198;6.824;2023-08-20T13:42:20;7.03;;;5.85;;
19889;SDS011;10107;51.198;6.824;2023-08-20T13:46:22;6.57;;;5.97;;
19889;SDS011;10107;51.198;6.824;2023-08-20T13:50:23;6.80;;;5.68;;
19889;SDS011;10107;51.198;6.824;2023-08-20T13:54:26;6.93;;;6.03;;
19889;SDS011;10107;51.198;6.824;2023-08-20T13:58:28;6.40;;;5.55;;
19889;SDS011;10107;51.198;6.824;2023-08-20T14:02:30;6.20;;;5.60;;
19889;SDS011;10107;51.198;6.824;2023-08-20T14:06:32;6.82;;;5.47;;
19889;SDS011;10107;51.198;6.824;2023-08-20T14:10:35;6.60;;;5.93;;
19889;SDS011;10107;51.198;6.824;2023-08-20T14:14:36;6.30;;;5.70;;
19889;SDS011;10107;51.198;6.824;2023-08-20T14:18:38;6.25;;;5.65;;
19889;SDS011;10107;51.198;6.824;2023-08-20T14:22:39;7.18;;;5.80;;
19889;SDS011;10107;51.198;6.824;2023-08-20T14:26:42;5.90;;;5.38;;
19889;SDS011;10107;51.198;6.824;2023-08-20T14:34:45;5.35;;;4.80;;
19889;SDS011;10107;51.198;6.824;2023-08-20T14:38:47;5.82;;;5.32;;
19889;SDS011;10107;51.198;6.824;2023-08-20T14:42:50;6.72;;;5.15;;
19889;SDS011;10107;51.198;6.824;2023-08-20T14:46:51;5.18;;;4.68;;
19889;SDS011;10107;51.198;6.824;2023-08-20T14:50:53;5.60;;;4.82;;
19889;SDS011;10107;51.198;6.824;2023-08-20T14:54:55;5.20;;;4.70;;
19889;SDS011;10107;51.198;6.824;2023-08-20T14:58:58;5.07;;;4.57;;
19889;SDS011;10107;51.198;6.824;2023-08-20T15:07:01;4.68;;;3.97;;
19889;SDS011;10107;51.198;6.824;2023-08-20T15:11:03;5.13;;;4.50;;
19889;SDS011;10107;51.198;6.824;2023-08-20T15:15:07;4.90;;;4.43;;
19889;SDS011;10107;51.198;6.824;2023-08-20T15:19:09;6.63;;;4.63;;
19889;SDS011;10107;51.198;6.824;2023-08-20T15:23:11;4.82;;;4.43;;
19889;SDS011;10107;51.198;6.824;2023-08-20T15:27:12;5.15;;;4.20;;
19889;SDS011;10107;51.198;6.824;2023-08-20T15:31:15;5.72;;;4.40;;
19889;SDS011;10107;51.198;6.824;2023-08-20T15:35:17;4.93;;;4.43;;
19889;SDS011;10107;51.198;6.824;2023-08-20T15:39:19;5.30;;;4.20;;
19889;SDS011;10107;51.198;6.824;2023-08-20T15:43:21;4.40;;;4.00;;
19889;SDS011;10107;51.198;6.824;2023-08-20T15:47:24;4.43;;;4.03;;
19889;SDS011;10107;51.198;6.824;2023-08-20T15:51:26;5.05;;;4.03;;
19889;SDS011;10107;51.198;6.824;2023-08-20T15:55:28;3.85;;;3.45;;
19889;SDS011;10107;51.198;6.824;2023-08-20T15:59:29;5.95;;;3.67;;
19889;SDS011;10107;51.198;6.824;2023-08-20T16:03:32;4.68;;;3.72;;
19889;SDS011;10107;51.198;6.824;2023-08-20T16:07:34;3.97;;;3.50;;
19889;SDS011;10107;51.198;6.824;2023-08-20T16:11:36;3.85;;;3.40;;
19889;SDS011;10107;51.198;6.824;2023-08-20T16:15:37;4.47;;;3.30;;
19889;SDS011;10107;51.198;6.824;2023-08-20T16:19:40;4.32;;;3.58;;
19889;SDS011;10107;51.198;6.824;2023-08-20T16:23:42;4.32;;;3.40;;
19889;SDS011;10107;51.198;6.824;2023-08-20T16:27:43;3.72;;;3.13;;
19889;SDS011;10107;51.198;6.824;2023-08-20T16:31:45;4.53;;;3.60;;
19889;SDS011;10107;51.198;6.824;2023-08-20T16:35:48;3.80;;;3.00;;
19889;SDS011;10107;51.198;6.824;2023-08-20T16:39:49;4.03;;;2.80;;
19889;SDS011;10107;51.198;6.824;2023-08-20T16:43:51;4.50;;;3.10;;
19889;SDS011;10107;51.198;6.824;2023-08-20T16:47:53;3.45;;;2.90;;
19889;SDS011;10107;51.198;6.824;2023-08-20T16:51:56;5.38;;;3.45;;
19889;SDS011;10107;51.198;6.824;2023-08-20T16:55:57;5.35;;;2.80;;
19889;SDS011;10107;51.198;6.824;2023-08-20T16:59:59;3.42;;;2.60;;
19889;SDS011;10107;51.198;6.824;2023-08-20T17:04:01;4.30;;;2.85;;
19889;SDS011;10107;51.198;6.824;2023-08-20T17:08:04;3.78;;;2.45;;
19889;SDS011;10107;51.198;6.824;2023-08-20T17:12:06;4.88;;;3.00;;
19889;SDS011;10107;51.198;6.824;2023-08-20T17:16:08;3.08;;;2.50;;
19889;SDS011;10107;51.198;6.824;2023-08-20T17:20:10;4.60;;;2.67;;
19889;SDS011;10107;51.198;6.824;2023-08-20T17:24:14;3.60;;;2.33;;
19889;SDS011;10107;51.198;6.824;2023-08-20T17:28:15;4.60;;;2.70;;
19889;SDS011;10107;51.198;6.824;2023-08-20T17:32:17;5.00;;;3.22;;
19889;SDS011;10107;51.198;6.824;2023-08-20T17:36:18;3.53;;;2.75;;
19889;SDS011;10107;51.198;6.824;2023-08-20T17:40:21;6.40;;;3.30;;
19889;SDS011;10107;51.198;6.824;2023-08-20T17:44:23;4.90;;;2.70;;
19889;SDS011;10107;51.198;6.824;2023-08-20T17:48:24;4.38;;;2.60;;
19889;SDS011;10107;51.198;6.824;2023-08-20T17:52:27;3.72;;;2.53;;
19889;SDS011;10107;51.198;6.824;2023-08-20T17:56:30;3.78;;;2.50;;
19889;SDS011;10107;51.198;6.824;2023-08-20T18:00:32;3.53;;;2.40;;
19889;SDS011;10107;51.198;6.824;2023-08-20T18:04:33;5.70;;;2.92;;
19889;SDS011;10107;51.198;6.824;2023-08-20T18:08:35;5.25;;;2.90;;
19889;SDS011;10107;51.198;6.824;2023-08-20T18:16:41;6.13;;;2.42;;
19889;SDS011;10107;51.198;6.824;2023-08-20T18:20:43;4.82;;;2.78;;
19889;SDS011;10107;51.198;6.824;2023-08-20T18:24:44;3.65;;;2.50;;
19889;SDS011;10107;51.198;6.824;2023-08-20T18:28:47;4.55;;;2.70;;
19889;SDS011;10107;51.198;6.824;2023-08-20T18:32:49;4.30;;;2.63;;
19889;SDS011;10107;51.198;6.824;2023-08-20T18:36:51;4.60;;;2.50;;
19889;SDS011;10107;51.198;6.824;2023-08-20T18:40:52;3.53;;;2.53;;
19889;SDS011;10107;51.198;6.824;2023-08-20T18:44:55;5.18;;;2.58;;
19889;SDS011;10107;51.198;6.824;2023-08-20T18:48:57;4.13;;;2.55;;
19889;SDS011;10107;51.198;6.824;2023-08-20T18:52:58;4.20;;;2.22;;
19889;SDS011;10107;51.198;6.824;2023-08-20T18:57:00;3.78;;;2.53;;
19889;SDS011;10107;51.198;6.824;2023-08-20T19:01:05;3.47;;;2.10;;
19889;SDS011;10107;51.198;6.824;2023-08-20T19:05:07;4.95;;;2.80;;
19889;SDS011;10107;51.198;6.824;2023-08-20T19:09:09;2.97;;;1.95;;
19889;SDS011;10107;51.198;6.824;2023-08-20T19:13:11;5.25;;;2.00;;
19889;SDS011;10107;51.198;6.824;2023-08-20T19:17:14;3.92;;;2.20;;
19889;SDS011;10107;51.198;6.824;2023-08-20T19:21:15;3.95;;;2.80;;
19889;SDS011;10107;51.198;6.824;2023-08-20T19:25:17;3.72;;;2.72;;
19889;SDS011;10107;51.198;6.824;2023-08-20T19:29:19;4.00;;;2.35;;
19889;SDS011;10107;51.198;6.824;2023-08-20T19:33:22;3.25;;;2.10;;
19889;SDS011;10107;51.198;6.824;2023-08-20T19:37:23;4.45;;;2.33;;
19889;SDS011;10107;51.198;6.824;2023-08-20T19:41:25;2.78;;;2.13;;
19889;SDS011;10107;51.198;6.824;2023-08-20T19:45:27;3.45;;;2.00;;
19889;SDS011;10107;51.198;6.824;2023-08-20T19:49:30;3.15;;;1.88;;
19889;SDS011;10107;51.198;6.824;2023-08-20T19:53:32;2.40;;;2.03;;
19889;SDS011;10107;51.198;6.824;2023-08-20T19:57:34;3.65;;;2.10;;
19889;SDS011;10107;51.198;6.824;2023-08-20T20:01:44;3.38;;;2.30;;
19889;SDS011;10107;51.198;6.824;2023-08-20T20:05:48;2.83;;;2.15;;
19889;SDS011;10107;51.198;6.824;2023-08-20T20:09:50;2.53;;;2.20;;
19889;SDS011;10107;51.198;6.824;2023-08-20T20:13:51;3.03;;;1.98;;
19889;SDS011;10107;51.198;6.824;2023-08-20T20:17:53;2.67;;;1.85;;
19889;SDS011;10107;51.198;6.824;2023-08-20T20:21:56;2.42;;;2.08;;
19889;SDS011;10107;51.198;6.824;2023-08-20T20:25:58;2.53;;;1.88;;
19889;SDS011;10107;51.198;6.824;2023-08-20T20:30:00;2.53;;;1.90;;
19889;SDS011;10107;51.198;6.824;2023-08-20T20:34:04;5.10;;;2.30;;
19889;SDS011;10107;51.198;6.824;2023-08-20T20:38:07;2.92;;;2.00;;
19889;SDS011;10107;51.198;6.824;2023-08-20T20:42:10;4.40;;;2.15;;
19889;SDS011;10107;51.198;6.824;2023-08-20T20:46:12;3.03;;;2.30;;
19889;SDS011;10107;51.198;6.824;2023-08-20T20:50:14;3.45;;;2.30;;
19889;SDS011;10107;51.198;6.824;2023-08-20T20:54:19;4.45;;;2.22;;
19889;SDS011;10107;51.198;6.824;2023-08-20T20:58:20;5.65;;;2.63;;
19889;SDS011;10107;51.198;6.824;2023-08-20T21:02:22;3.90;;;2.35;;
19889;SDS011;10107;51.198;6.824;2023-08-20T21:06:23;2.72;;;2.10;;
19889;SDS011;10107;51.198;6.824;2023-08-20T21:10:26;3.47;;;2.40;;
19889;SDS011;10107;51.198;6.824;2023-08-20T21:14:28;3.05;;;2.10;;
19889;SDS011;10107;51.198;6.824;2023-08-20T21:18:29;3.88;;;2.45;;
19889;SDS011;10107;51.198;6.824;2023-08-20T21:22:31;2.55;;;1.85;;
19889;SDS011;10107;51.198;6.824;2023-08-20T21:26:34;2.67;;;2.03;;
19889;SDS011;10107;51.198;6.824;2023-08-20T21:30:36;2.88;;;2.03;;
19889;SDS011;10107;51.198;6.824;2023-08-20T21:34:37;3.95;;;2.20;;
19889;SDS011;10107;51.198;6.824;2023-08-20T21:38:39;3.17;;;2.30;;
19889;SDS011;10107;51.198;6.824;2023-08-20T21:42:42;2.60;;;2.13;;
19889;SDS011;10107;51.198;6.824;2023-08-20T21:46:43;2.43;;;1.93;;
19889;SDS011;10107;51.198;6.824;2023-08-20T21:50:45;3.53;;;2.00;;
19889;SDS011;10107;51.198;6.824;2023-08-20T21:54:47;4.07;;;2.03;;
19889;SDS011;10107;51.198;6.824;2023-08-20T21:58:50;3.60;;;2.30;;
19889;SDS011;10107;51.198;6.824;2023-08-20T22:02:51;4.38;;;2.20;;
19889;SDS011;10107;51.198;6.824;2023-08-20T22:06:53;3.22;;;1.92;;
19889;SDS011;10107;51.198;6.824;2023-08-20T22:10:55;4.50;;;2.30;;
19889;SDS011;10107;51.198;6.824;2023-08-20T22:14:58;2.45;;;1.92;;
19889;SDS011;10107;51.198;6.824;2023-08-20T22:19:00;4.20;;;2.08;;
19889;SDS011;10107;51.198;6.824;2023-08-20T22:23:01;2.95;;;2.17;;
19889;SDS011;10107;51.198;6.824;2023-08-20T22:27:03;2.85;;;1.92;;
19889;SDS011;10107;51.198;6.824;2023-08-20T22:31:06;2.55;;;2.10;;
19889;SDS011;10107;51.198;6.824;2023-08-20T22:35:08;2.97;;;2.20;;
19889;SDS011;10107;51.198;6.824;2023-08-20T22:39:10;3.03;;;2.00;;
19889;SDS011;10107;51.198;6.824;2023-08-20T22:43:12;3.58;;;2.25;;
19889;SDS011;10107;51.198;6.824;2023-08-20T22:47:15;2.88;;;2.10;;
19889;SDS011;10107;51.198;6.824;2023-08-20T22:51:17;3.70;;;2.53;;
19889;SDS011;10107;51.198;6.824;2023-08-20T22:55:19;3.83;;;3.20;;
19889;SDS011;10107;51.198;6.824;2023-08-20T22:59:21;4.65;;;2.85;;
19889;SDS011;10107;51.198;6.824;2023-08-20T23:03:24;4.13;;;2.85;;
19889;SDS011;10107;51.198;6.824;2023-08-20T23:07:25;2.53;;;2.07;;
19889;SDS011;10107;51.198;6.824;2023-08-20T23:11:27;3.75;;;2.30;;
19889;SDS011;10107;51.198;6.824;2023-08-20T23:15:28;2.47;;;2.28;;
19889;SDS011;10107;51.198;6.824;2023-08-20T23:19:31;2.83;;;2.15;;
19889;SDS011;10107;51.198;6.824;2023-08-20T23:23:33;2.90;;;2.10;;
19889;SDS011;10107;51.198;6.824;2023-08-20T23:27:35;3.05;;;2.35;;
19889;SDS011;10107;51.198;6.824;2023-08-20T23:31:36;3.50;;;2.50;;
19889;SDS011;10107;51.198;6.824;2023-08-20T23:35:39;2.72;;;2.38;;
19889;SDS011;10107;51.198;6.824;2023-08-20T23:39:41;4.53;;;2.63;;
19889;SDS011;10107;51.198;6.824;2023-08-20T23:43:43;5.53;;;2.90;;
19889;SDS011;10107;51.198;6.824;2023-08-20T23:47:44;3.50;;;2.85;;
19889;SDS011;10107;51.198;6.824;2023-08-20T23:51:47;4.07;;;2.88;;
19889;SDS011;10107;51.198;6.824;2023-08-20T23:55:49;3.37;;;2.77;;
19889;SDS011;10107;51.198;6.824;2023-08-20T23:59:51;3.95;;;2.50;;
